sensor_id;sensor_type;location;lat;lon;timestamp;temperature;humidity
20068;DHT22;10194;50.824;7.134;2023-11-21T00:01:59;8.70;99.90
20068;DHT22;10194;50.824;7.134;2023-11-21T00:04:25;8.70;99.90
20068;DHT22;10194;50.824;7.134;2023-11-21T00:06:54;8.60;99.90
20068;DHT22;10194;50.824;7.134;2023-11-21T00:09:20;8.60;99.90
20068;DHT22;10194;50.824;7.134;2023-11-21T00:11:45;8.60;99.90
20068;DHT22;10194;50.824;7.134;2023-11-21T00:14:11;8.60;99.90
20068;DHT22;10194;50.824;7.134;2023-11-21T00:16:37;8.60;99.90
20068;DHT22;10194;50.824;7.134;2023-11-21T00:19:03;8.60;99.90
20068;DHT22;10194;50.824;7.134;2023-11-21T00:21:29;8.60;99.90
20068;DHT22;10194;50.824;7.134;2023-11-21T00:23:54;8.60;99.90
20068;DHT22;10194;50.824;7.134;2023-11-21T00:26:20;8.50;99.90
20068;DHT22;10194;50.824;7.134;2023-11-21T00:28:46;8.50;99.90
20068;DHT22;10194;50.824;7.134;2023-11-21T00:31:12;8.50;99.90
20068;DHT22;10194;50.824;7.134;2023-11-21T00:33:37;8.50;99.90
20068;DHT22;10194;50.824;7.134;2023-11-21T00:36:03;8.50;99.90
20068;DHT22;10194;50.824;7.134;2023-11-21T00:38:32;8.50;99.90
20068;DHT22;10194;50.824;7.134;2023-11-21T00:40:58;8.40;99.90
20068;DHT22;10194;50.824;7.134;2023-11-21T00:43:30;8.40;99.90
20068;DHT22;10194;50.824;7.134;2023-11-21T00:45:56;8.40;99.90
20068;DHT22;10194;50.824;7.134;2023-11-21T00:48:23;8.40;99.90
20068;DHT22;10194;50.824;7.134;2023-11-21T00:50:52;8.40;99.90
20068;DHT22;10194;50.824;7.134;2023-11-21T00:53:17;8.30;99.90
20068;DHT22;10194;50.824;7.134;2023-11-21T00:55:43;8.30;99.90
20068;DHT22;10194;50.824;7.134;2023-11-21T00:58:09;8.30;99.90
20068;DHT22;10194;50.824;7.134;2023-11-21T01:00:35;8.30;99.90
20068;DHT22;10194;50.824;7.134;2023-11-21T01:03:04;8.40;99.90
20068;DHT22;10194;50.824;7.134;2023-11-21T01:05:30;8.40;99.90
20068;DHT22;10194;50.824;7.134;2023-11-21T01:07:56;8.40;99.90
20068;DHT22;10194;50.824;7.134;2023-11-21T01:10:22;8.30;99.90
20068;DHT22;10194;50.824;7.134;2023-11-21T01:12:47;8.40;99.90
20068;DHT22;10194;50.824;7.134;2023-11-21T01:15:14;8.40;99.90
20068;DHT22;10194;50.824;7.134;2023-11-21T01:17:40;8.40;99.90
20068;DHT22;10194;50.824;7.134;2023-11-21T01:20:07;8.30;99.90
20068;DHT22;10194;50.824;7.134;2023-11-21T01:22:37;8.40;99.90
20068;DHT22;10194;50.824;7.134;2023-11-21T01:25:03;8.30;99.90
20068;DHT22;10194;50.824;7.134;2023-11-21T01:27:33;8.30;99.90
20068;DHT22;10194;50.824;7.134;2023-11-21T01:30:00;8.30;99.90
20068;DHT22;10194;50.824;7.134;2023-11-21T01:32:26;8.30;99.90
20068;DHT22;10194;50.824;7.134;2023-11-21T01:34:52;8.30;99.90
20068;DHT22;10194;50.824;7.134;2023-11-21T01:37:18;8.30;99.90
20068;DHT22;10194;50.824;7.134;2023-11-21T01:39:43;8.30;99.90
20068;DHT22;10194;50.824;7.134;2023-11-21T01:42:10;8.30;99.90
20068;DHT22;10194;50.824;7.134;2023-11-21T01:44:38;8.30;99.90
20068;DHT22;10194;50.824;7.134;2023-11-21T01:47:05;8.30;99.90
20068;DHT22;10194;50.824;7.134;2023-11-21T01:49:35;8.30;99.90
20068;DHT22;10194;50.824;7.134;2023-11-21T01:52:01;8.30;99.90
20068;DHT22;10194;50.824;7.134;2023-11-21T01:54:29;8.30;99.90
20068;DHT22;10194;50.824;7.134;2023-11-21T01:57:01;8.30;99.90
20068;DHT22;10194;50.824;7.134;2023-11-21T01:59:38;8.30;99.90
20068;DHT22;10194;50.824;7.134;2023-11-21T02:02:07;8.30;99.90
20068;DHT22;10194;50.824;7.134;2023-11-21T02:04:35;8.20;99.90
20068;DHT22;10194;50.824;7.134;2023-11-21T02:07:04;8.20;99.90
20068;DHT22;10194;50.824;7.134;2023-11-21T02:09:33;8.30;99.90
20068;DHT22;10194;50.824;7.134;2023-11-21T02:11:59;8.20;99.90
20068;DHT22;10194;50.824;7.134;2023-11-21T02:14:28;8.20;99.90
20068;DHT22;10194;50.824;7.134;2023-11-21T02:16:55;8.20;99.90
20068;DHT22;10194;50.824;7.134;2023-11-21T02:19:23;8.20;99.90
20068;DHT22;10194;50.824;7.134;2023-11-21T02:21:51;8.30;99.90
20068;DHT22;10194;50.824;7.134;2023-11-21T02:24:22;8.30;99.90
20068;DHT22;10194;50.824;7.134;2023-11-21T02:26:51;8.30;99.90
20068;DHT22;10194;50.824;7.134;2023-11-21T02:29:20;8.20;99.90
20068;DHT22;10194;50.824;7.134;2023-11-21T02:31:54;8.20;99.90
20068;DHT22;10194;50.824;7.134;2023-11-21T02:34:21;8.20;99.90
20068;DHT22;10194;50.824;7.134;2023-11-21T02:36:48;8.20;99.90
20068;DHT22;10194;50.824;7.134;2023-11-21T02:39:17;8.20;99.90
20068;DHT22;10194;50.824;7.134;2023-11-21T02:41:44;8.20;99.90
20068;DHT22;10194;50.824;7.134;2023-11-21T02:44:10;8.20;99.90
20068;DHT22;10194;50.824;7.134;2023-11-21T02:46:36;8.10;99.90
20068;DHT22;10194;50.824;7.134;2023-11-21T02:49:06;8.10;99.90
20068;DHT22;10194;50.824;7.134;2023-11-21T02:51:33;8.00;99.90
20068;DHT22;10194;50.824;7.134;2023-11-21T02:53:59;7.90;99.90
20068;DHT22;10194;50.824;7.134;2023-11-21T02:56:26;7.90;99.90
20068;DHT22;10194;50.824;7.134;2023-11-21T02:58:55;7.80;99.90
20068;DHT22;10194;50.824;7.134;2023-11-21T03:01:21;7.80;99.90
20068;DHT22;10194;50.824;7.134;2023-11-21T03:03:46;7.80;99.90
20068;DHT22;10194;50.824;7.134;2023-11-21T03:06:13;7.70;99.90
20068;DHT22;10194;50.824;7.134;2023-11-21T03:08:38;7.70;99.90
20068;DHT22;10194;50.824;7.134;2023-11-21T03:11:04;7.70;99.90
20068;DHT22;10194;50.824;7.134;2023-11-21T03:13:30;7.70;99.90
20068;DHT22;10194;50.824;7.134;2023-11-21T03:15:56;7.70;99.90
20068;DHT22;10194;50.824;7.134;2023-11-21T03:18:22;7.70;99.90
20068;DHT22;10194;50.824;7.134;2023-11-21T03:20:48;7.70;99.90
20068;DHT22;10194;50.824;7.134;2023-11-21T03:23:13;7.80;99.90
20068;DHT22;10194;50.824;7.134;2023-11-21T03:25:40;7.70;99.90
20068;DHT22;10194;50.824;7.134;2023-11-21T03:28:06;7.70;99.90
20068;DHT22;10194;50.824;7.134;2023-11-21T03:30:33;7.70;99.90
20068;DHT22;10194;50.824;7.134;2023-11-21T03:32:59;7.80;99.90
20068;DHT22;10194;50.824;7.134;2023-11-21T03:35:25;7.80;99.90
20068;DHT22;10194;50.824;7.134;2023-11-21T03:37:51;7.80;99.90
20068;DHT22;10194;50.824;7.134;2023-11-21T03:40:17;7.80;99.90
20068;DHT22;10194;50.824;7.134;2023-11-21T03:42:43;7.80;99.90
20068;DHT22;10194;50.824;7.134;2023-11-21T03:45:09;7.80;99.90
20068;DHT22;10194;50.824;7.134;2023-11-21T03:47:35;7.90;99.90
20068;DHT22;10194;50.824;7.134;2023-11-21T03:50:00;7.90;99.90
20068;DHT22;10194;50.824;7.134;2023-11-21T03:52:26;7.90;99.90
20068;DHT22;10194;50.824;7.134;2023-11-21T03:54:54;7.90;99.90
20068;DHT22;10194;50.824;7.134;2023-11-21T03:57:21;7.90;99.90
20068;DHT22;10194;50.824;7.134;2023-11-21T03:59:47;7.90;99.90
20068;DHT22;10194;50.824;7.134;2023-11-21T04:02:13;8.00;99.90
20068;DHT22;10194;50.824;7.134;2023-11-21T04:04:38;8.00;99.90
20068;DHT22;10194;50.824;7.134;2023-11-21T04:07:05;7.90;99.90
20068;DHT22;10194;50.824;7.134;2023-11-21T04:09:31;7.90;99.90
20068;DHT22;10194;50.824;7.134;2023-11-21T04:11:56;8.00;99.90
20068;DHT22;10194;50.824;7.134;2023-11-21T04:14:22;8.00;99.90
20068;DHT22;10194;50.824;7.134;2023-11-21T04:16:48;8.00;99.90
20068;DHT22;10194;50.824;7.134;2023-11-21T04:19:14;8.00;99.90
20068;DHT22;10194;50.824;7.134;2023-11-21T04:21:41;8.00;99.90
20068;DHT22;10194;50.824;7.134;2023-11-21T04:24:07;8.00;99.90
20068;DHT22;10194;50.824;7.134;2023-11-21T04:26:33;8.10;99.90
20068;DHT22;10194;50.824;7.134;2023-11-21T04:28:59;8.10;99.90
20068;DHT22;10194;50.824;7.134;2023-11-21T04:31:25;8.10;99.90
20068;DHT22;10194;50.824;7.134;2023-11-21T04:33:50;8.10;99.90
20068;DHT22;10194;50.824;7.134;2023-11-21T04:36:16;8.10;99.90
20068;DHT22;10194;50.824;7.134;2023-11-21T04:38:42;8.10;99.90
20068;DHT22;10194;50.824;7.134;2023-11-21T04:41:09;8.10;99.90
20068;DHT22;10194;50.824;7.134;2023-11-21T04:43:34;8.20;99.90
20068;DHT22;10194;50.824;7.134;2023-11-21T04:46:00;8.10;99.90
20068;DHT22;10194;50.824;7.134;2023-11-21T04:48:27;8.20;99.90
20068;DHT22;10194;50.824;7.134;2023-11-21T04:50:53;8.10;99.90
20068;DHT22;10194;50.824;7.134;2023-11-21T04:53:19;8.10;99.90
20068;DHT22;10194;50.824;7.134;2023-11-21T04:55:45;8.10;99.90
20068;DHT22;10194;50.824;7.134;2023-11-21T04:58:11;8.10;99.90
20068;DHT22;10194;50.824;7.134;2023-11-21T05:00:37;8.10;99.90
20068;DHT22;10194;50.824;7.134;2023-11-21T05:03:04;8.00;99.90
20068;DHT22;10194;50.824;7.134;2023-11-21T05:05:30;8.00;99.90
20068;DHT22;10194;50.824;7.134;2023-11-21T05:07:56;8.00;99.90
20068;DHT22;10194;50.824;7.134;2023-11-21T05:10:22;8.00;99.90
20068;DHT22;10194;50.824;7.134;2023-11-21T05:12:48;8.00;99.90
20068;DHT22;10194;50.824;7.134;2023-11-21T05:15:16;8.00;99.90
20068;DHT22;10194;50.824;7.134;2023-11-21T05:17:45;8.00;99.90
20068;DHT22;10194;50.824;7.134;2023-11-21T05:20:11;7.90;99.90
20068;DHT22;10194;50.824;7.134;2023-11-21T05:22:39;7.90;99.90
20068;DHT22;10194;50.824;7.134;2023-11-21T05:25:06;7.90;99.90
20068;DHT22;10194;50.824;7.134;2023-11-21T05:27:33;7.90;99.90
20068;DHT22;10194;50.824;7.134;2023-11-21T05:30:01;7.90;99.90
20068;DHT22;10194;50.824;7.134;2023-11-21T05:32:30;8.00;99.90
20068;DHT22;10194;50.824;7.134;2023-11-21T05:34:57;8.00;99.90
20068;DHT22;10194;50.824;7.134;2023-11-21T05:37:22;8.00;99.90
20068;DHT22;10194;50.824;7.134;2023-11-21T05:39:49;7.90;99.90
20068;DHT22;10194;50.824;7.134;2023-11-21T05:42:15;7.90;99.90
20068;DHT22;10194;50.824;7.134;2023-11-21T05:44:42;7.90;99.90
20068;DHT22;10194;50.824;7.134;2023-11-21T05:47:11;7.90;99.90
20068;DHT22;10194;50.824;7.134;2023-11-21T05:49:39;8.00;99.90
20068;DHT22;10194;50.824;7.134;2023-11-21T05:52:05;8.00;99.90
20068;DHT22;10194;50.824;7.134;2023-11-21T05:54:31;8.00;99.90
20068;DHT22;10194;50.824;7.134;2023-11-21T05:56:57;8.00;99.90
20068;DHT22;10194;50.824;7.134;2023-11-21T05:59:24;8.00;99.90
20068;DHT22;10194;50.824;7.134;2023-11-21T06:01:50;8.00;99.90
20068;DHT22;10194;50.824;7.134;2023-11-21T06:04:15;8.00;99.90
20068;DHT22;10194;50.824;7.134;2023-11-21T06:06:41;8.00;99.90
20068;DHT22;10194;50.824;7.134;2023-11-21T06:09:07;8.00;99.90
20068;DHT22;10194;50.824;7.134;2023-11-21T06:11:35;8.00;99.90
20068;DHT22;10194;50.824;7.134;2023-11-21T06:14:02;8.00;99.90
20068;DHT22;10194;50.824;7.134;2023-11-21T06:16:27;8.00;99.90
20068;DHT22;10194;50.824;7.134;2023-11-21T06:18:54;8.00;99.90
20068;DHT22;10194;50.824;7.134;2023-11-21T06:21:20;8.00;99.90
20068;DHT22;10194;50.824;7.134;2023-11-21T06:23:45;8.00;99.90
20068;DHT22;10194;50.824;7.134;2023-11-21T06:26:11;8.00;99.90
20068;DHT22;10194;50.824;7.134;2023-11-21T06:28:38;8.00;99.90
20068;DHT22;10194;50.824;7.134;2023-11-21T06:31:04;8.00;99.90
20068;DHT22;10194;50.824;7.134;2023-11-21T06:33:32;8.00;99.90
20068;DHT22;10194;50.824;7.134;2023-11-21T06:35:57;8.10;99.90
20068;DHT22;10194;50.824;7.134;2023-11-21T06:38:23;8.10;99.90
20068;DHT22;10194;50.824;7.134;2023-11-21T06:40:49;8.10;99.90
20068;DHT22;10194;50.824;7.134;2023-11-21T06:43:15;8.10;99.90
20068;DHT22;10194;50.824;7.134;2023-11-21T06:45:41;8.10;99.90
20068;DHT22;10194;50.824;7.134;2023-11-21T06:48:07;8.20;99.90
20068;DHT22;10194;50.824;7.134;2023-11-21T06:50:32;8.20;99.90
20068;DHT22;10194;50.824;7.134;2023-11-21T06:52:58;8.10;99.90
20068;DHT22;10194;50.824;7.134;2023-11-21T06:55:24;8.10;99.90
20068;DHT22;10194;50.824;7.134;2023-11-21T06:57:49;8.20;99.90
20068;DHT22;10194;50.824;7.134;2023-11-21T07:00:17;8.10;99.90
20068;DHT22;10194;50.824;7.134;2023-11-21T07:02:44;8.20;99.90
20068;DHT22;10194;50.824;7.134;2023-11-21T07:05:10;8.20;99.90
20068;DHT22;10194;50.824;7.134;2023-11-21T07:07:36;8.20;99.90
20068;DHT22;10194;50.824;7.134;2023-11-21T07:10:03;8.20;99.90
20068;DHT22;10194;50.824;7.134;2023-11-21T07:12:30;8.20;99.90
20068;DHT22;10194;50.824;7.134;2023-11-21T07:14:57;8.30;99.90
20068;DHT22;10194;50.824;7.134;2023-11-21T07:17:23;8.30;99.90
20068;DHT22;10194;50.824;7.134;2023-11-21T07:19:49;8.40;99.90
20068;DHT22;10194;50.824;7.134;2023-11-21T07:22:15;8.40;99.90
20068;DHT22;10194;50.824;7.134;2023-11-21T07:24:48;8.40;99.90
20068;DHT22;10194;50.824;7.134;2023-11-21T07:27:17;8.40;99.90
20068;DHT22;10194;50.824;7.134;2023-11-21T07:29:44;8.50;99.90
20068;DHT22;10194;50.824;7.134;2023-11-21T07:32:10;8.50;99.90
20068;DHT22;10194;50.824;7.134;2023-11-21T07:34:36;8.40;99.90
20068;DHT22;10194;50.824;7.134;2023-11-21T07:37:03;8.50;99.90
20068;DHT22;10194;50.824;7.134;2023-11-21T07:39:29;8.50;99.90
20068;DHT22;10194;50.824;7.134;2023-11-21T07:41:55;8.50;99.90
20068;DHT22;10194;50.824;7.134;2023-11-21T07:44:23;8.60;99.90
20068;DHT22;10194;50.824;7.134;2023-11-21T07:46:49;8.60;99.90
20068;DHT22;10194;50.824;7.134;2023-11-21T07:49:17;8.60;99.90
20068;DHT22;10194;50.824;7.134;2023-11-21T07:51:45;8.70;99.90
20068;DHT22;10194;50.824;7.134;2023-11-21T07:54:11;8.70;99.90
20068;DHT22;10194;50.824;7.134;2023-11-21T07:56:37;8.70;99.90
20068;DHT22;10194;50.824;7.134;2023-11-21T07:59:03;8.70;99.90
20068;DHT22;10194;50.824;7.134;2023-11-21T08:01:29;8.80;99.90
20068;DHT22;10194;50.824;7.134;2023-11-21T08:03:55;8.70;99.90
20068;DHT22;10194;50.824;7.134;2023-11-21T08:06:24;8.80;99.90
20068;DHT22;10194;50.824;7.134;2023-11-21T08:08:51;8.80;99.90
20068;DHT22;10194;50.824;7.134;2023-11-21T08:11:17;8.80;99.90
20068;DHT22;10194;50.824;7.134;2023-11-21T08:13:42;8.90;99.90
20068;DHT22;10194;50.824;7.134;2023-11-21T08:16:08;9.00;99.90
20068;DHT22;10194;50.824;7.134;2023-11-21T08:18:34;9.00;99.90
20068;DHT22;10194;50.824;7.134;2023-11-21T08:21:00;9.00;99.90
20068;DHT22;10194;50.824;7.134;2023-11-21T08:23:26;9.00;99.90
20068;DHT22;10194;50.824;7.134;2023-11-21T08:25:53;9.00;99.90
20068;DHT22;10194;50.824;7.134;2023-11-21T08:28:19;9.10;99.90
20068;DHT22;10194;50.824;7.134;2023-11-21T08:30:51;9.10;99.90
20068;DHT22;10194;50.824;7.134;2023-11-21T08:33:18;9.20;99.90
20068;DHT22;10194;50.824;7.134;2023-11-21T08:35:44;9.20;99.90
20068;DHT22;10194;50.824;7.134;2023-11-21T08:38:11;9.30;99.90
20068;DHT22;10194;50.824;7.134;2023-11-21T08:40:38;9.40;99.90
20068;DHT22;10194;50.824;7.134;2023-11-21T08:43:04;9.40;99.90
20068;DHT22;10194;50.824;7.134;2023-11-21T08:45:30;9.50;99.90
20068;DHT22;10194;50.824;7.134;2023-11-21T08:47:56;9.60;99.90
20068;DHT22;10194;50.824;7.134;2023-11-21T08:50:22;9.70;99.90
20068;DHT22;10194;50.824;7.134;2023-11-21T08:52:48;9.60;99.90
20068;DHT22;10194;50.824;7.134;2023-11-21T08:55:14;9.60;99.90
20068;DHT22;10194;50.824;7.134;2023-11-21T08:57:41;9.60;99.90
20068;DHT22;10194;50.824;7.134;2023-11-21T09:00:10;9.60;99.90
20068;DHT22;10194;50.824;7.134;2023-11-21T09:02:41;9.60;99.90
20068;DHT22;10194;50.824;7.134;2023-11-21T09:05:09;9.60;99.90
20068;DHT22;10194;50.824;7.134;2023-11-21T09:07:36;9.60;99.90
20068;DHT22;10194;50.824;7.134;2023-11-21T09:10:06;9.60;99.90
20068;DHT22;10194;50.824;7.134;2023-11-21T09:12:35;9.60;99.90
20068;DHT22;10194;50.824;7.134;2023-11-21T09:15:08;9.60;99.90
20068;DHT22;10194;50.824;7.134;2023-11-21T09:17:35;9.60;99.90
20068;DHT22;10194;50.824;7.134;2023-11-21T09:20:01;9.70;99.90
20068;DHT22;10194;50.824;7.134;2023-11-21T09:22:29;9.70;99.90
20068;DHT22;10194;50.824;7.134;2023-11-21T09:24:55;9.70;99.90
20068;DHT22;10194;50.824;7.134;2023-11-21T09:27:23;9.70;99.90
20068;DHT22;10194;50.824;7.134;2023-11-21T09:29:49;9.70;99.90
20068;DHT22;10194;50.824;7.134;2023-11-21T09:32:15;9.70;99.90
20068;DHT22;10194;50.824;7.134;2023-11-21T09:34:44;9.70;99.90
20068;DHT22;10194;50.824;7.134;2023-11-21T09:37:09;9.60;99.90
20068;DHT22;10194;50.824;7.134;2023-11-21T09:39:35;9.60;99.90
20068;DHT22;10194;50.824;7.134;2023-11-21T09:42:17;9.70;99.90
20068;DHT22;10194;50.824;7.134;2023-11-21T09:44:54;9.70;99.90
20068;DHT22;10194;50.824;7.134;2023-11-21T09:47:27;9.70;99.90
20068;DHT22;10194;50.824;7.134;2023-11-21T09:49:54;9.80;99.90
20068;DHT22;10194;50.824;7.134;2023-11-21T09:52:28;9.70;99.90
20068;DHT22;10194;50.824;7.134;2023-11-21T09:54:55;9.70;99.90
20068;DHT22;10194;50.824;7.134;2023-11-21T09:57:25;9.70;99.90
20068;DHT22;10194;50.824;7.134;2023-11-21T09:59:52;9.70;99.90
20068;DHT22;10194;50.824;7.134;2023-11-21T10:02:28;9.70;99.90
20068;DHT22;10194;50.824;7.134;2023-11-21T10:04:55;9.80;99.90
20068;DHT22;10194;50.824;7.134;2023-11-21T10:07:22;9.80;99.90
20068;DHT22;10194;50.824;7.134;2023-11-21T10:09:51;9.80;99.90
20068;DHT22;10194;50.824;7.134;2023-11-21T10:12:17;9.90;99.90
20068;DHT22;10194;50.824;7.134;2023-11-21T10:14:46;10.00;99.90
20068;DHT22;10194;50.824;7.134;2023-11-21T10:17:14;10.00;99.90
20068;DHT22;10194;50.824;7.134;2023-11-21T10:19:47;10.10;99.90
20068;DHT22;10194;50.824;7.134;2023-11-21T10:22:17;10.10;99.90
20068;DHT22;10194;50.824;7.134;2023-11-21T10:24:44;10.10;99.90
20068;DHT22;10194;50.824;7.134;2023-11-21T10:27:10;10.00;99.90
20068;DHT22;10194;50.824;7.134;2023-11-21T10:29:36;10.00;99.90
20068;DHT22;10194;50.824;7.134;2023-11-21T10:32:03;10.00;99.90
20068;DHT22;10194;50.824;7.134;2023-11-21T10:34:31;10.10;99.90
20068;DHT22;10194;50.824;7.134;2023-11-21T10:36:57;10.10;99.90
20068;DHT22;10194;50.824;7.134;2023-11-21T10:39:24;10.10;99.90
20068;DHT22;10194;50.824;7.134;2023-11-21T10:41:54;10.10;99.90
20068;DHT22;10194;50.824;7.134;2023-11-21T10:44:26;10.00;99.90
20068;DHT22;10194;50.824;7.134;2023-11-21T10:46:53;10.00;99.90
20068;DHT22;10194;50.824;7.134;2023-11-21T10:49:26;10.00;99.90
20068;DHT22;10194;50.824;7.134;2023-11-21T10:51:56;10.00;99.90
20068;DHT22;10194;50.824;7.134;2023-11-21T10:54:26;10.00;99.90
20068;DHT22;10194;50.824;7.134;2023-11-21T10:56:57;10.10;99.90
20068;DHT22;10194;50.824;7.134;2023-11-21T10:59:28;10.20;99.90
20068;DHT22;10194;50.824;7.134;2023-11-21T11:04:52;10.30;99.90
20068;DHT22;10194;50.824;7.134;2023-11-21T11:07:26;10.20;99.90
20068;DHT22;10194;50.824;7.134;2023-11-21T11:10:04;10.20;99.90
20068;DHT22;10194;50.824;7.134;2023-11-21T11:12:34;10.20;99.90
20068;DHT22;10194;50.824;7.134;2023-11-21T11:15:08;10.10;99.90
20068;DHT22;10194;50.824;7.134;2023-11-21T11:17:38;10.10;99.90
20068;DHT22;10194;50.824;7.134;2023-11-21T11:20:05;10.10;99.90
20068;DHT22;10194;50.824;7.134;2023-11-21T11:32:22;10.00;99.90
20068;DHT22;10194;50.824;7.134;2023-11-21T11:38:21;10.00;99.90
20068;DHT22;10194;50.824;7.134;2023-11-21T11:40:52;10.00;99.90
20068;DHT22;10194;50.824;7.134;2023-11-21T11:43:26;10.00;99.90
20068;DHT22;10194;50.824;7.134;2023-11-21T11:45:57;10.00;99.90
20068;DHT22;10194;50.824;7.134;2023-11-21T11:48:29;10.00;99.90
20068;DHT22;10194;50.824;7.134;2023-11-21T11:51:05;10.00;99.90
20068;DHT22;10194;50.824;7.134;2023-11-21T11:53:48;9.90;99.90
20068;DHT22;10194;50.824;7.134;2023-11-21T11:59:01;9.90;99.90
20068;DHT22;10194;50.824;7.134;2023-11-21T12:01:29;10.00;99.90
20068;DHT22;10194;50.824;7.134;2023-11-21T12:06:43;10.10;99.90
20068;DHT22;10194;50.824;7.134;2023-11-21T12:09:23;10.10;99.90
20068;DHT22;10194;50.824;7.134;2023-11-21T12:11:49;10.10;99.90
20068;DHT22;10194;50.824;7.134;2023-11-21T12:14:16;10.10;99.90
20068;DHT22;10194;50.824;7.134;2023-11-21T12:16:42;10.20;99.90
20068;DHT22;10194;50.824;7.134;2023-11-21T12:19:11;10.20;99.90
20068;DHT22;10194;50.824;7.134;2023-11-21T12:21:38;10.20;99.90
20068;DHT22;10194;50.824;7.134;2023-11-21T12:24:06;10.20;99.90
20068;DHT22;10194;50.824;7.134;2023-11-21T12:26:39;10.10;99.90
20068;DHT22;10194;50.824;7.134;2023-11-21T12:29:05;10.20;99.90
20068;DHT22;10194;50.824;7.134;2023-11-21T12:31:33;10.20;99.90
20068;DHT22;10194;50.824;7.134;2023-11-21T12:34:03;10.10;99.90
20068;DHT22;10194;50.824;7.134;2023-11-21T12:36:29;10.10;99.90
20068;DHT22;10194;50.824;7.134;2023-11-21T12:38:55;10.10;99.90
20068;DHT22;10194;50.824;7.134;2023-11-21T12:41:22;10.20;99.90
20068;DHT22;10194;50.824;7.134;2023-11-21T12:43:48;10.20;99.90
20068;DHT22;10194;50.824;7.134;2023-11-21T12:46:16;10.20;99.90
20068;DHT22;10194;50.824;7.134;2023-11-21T12:48:44;10.20;99.90
20068;DHT22;10194;50.824;7.134;2023-11-21T12:51:13;10.30;99.90
20068;DHT22;10194;50.824;7.134;2023-11-21T12:53:44;10.40;99.90
20068;DHT22;10194;50.824;7.134;2023-11-21T12:56:11;10.40;99.90
20068;DHT22;10194;50.824;7.134;2023-11-21T12:58:39;10.30;99.90
20068;DHT22;10194;50.824;7.134;2023-11-21T13:01:07;10.30;99.90
20068;DHT22;10194;50.824;7.134;2023-11-21T13:03:47;10.30;99.90
20068;DHT22;10194;50.824;7.134;2023-11-21T13:06:17;10.40;99.90
20068;DHT22;10194;50.824;7.134;2023-11-21T13:08:45;10.40;99.90
20068;DHT22;10194;50.824;7.134;2023-11-21T13:11:11;10.40;99.90
20068;DHT22;10194;50.824;7.134;2023-11-21T13:13:41;10.40;99.90
20068;DHT22;10194;50.824;7.134;2023-11-21T13:16:10;10.40;99.90
20068;DHT22;10194;50.824;7.134;2023-11-21T13:18:37;10.40;99.90
20068;DHT22;10194;50.824;7.134;2023-11-21T13:21:05;10.50;99.90
20068;DHT22;10194;50.824;7.134;2023-11-21T13:23:35;10.60;99.90
20068;DHT22;10194;50.824;7.134;2023-11-21T13:26:02;10.50;99.90
20068;DHT22;10194;50.824;7.134;2023-11-21T13:28:30;10.40;99.90
20068;DHT22;10194;50.824;7.134;2023-11-21T13:31:00;10.50;99.90
20068;DHT22;10194;50.824;7.134;2023-11-21T13:33:36;10.50;99.90
20068;DHT22;10194;50.824;7.134;2023-11-21T13:36:08;10.50;99.90
20068;DHT22;10194;50.824;7.134;2023-11-21T13:38:34;10.50;99.90
20068;DHT22;10194;50.824;7.134;2023-11-21T13:41:01;10.50;99.90
20068;DHT22;10194;50.824;7.134;2023-11-21T13:43:28;10.50;99.90
20068;DHT22;10194;50.824;7.134;2023-11-21T13:45:54;10.50;99.90
20068;DHT22;10194;50.824;7.134;2023-11-21T13:48:38;10.40;99.90
20068;DHT22;10194;50.824;7.134;2023-11-21T13:51:09;10.40;99.90
20068;DHT22;10194;50.824;7.134;2023-11-21T13:53:47;10.30;99.90
20068;DHT22;10194;50.824;7.134;2023-11-21T13:56:16;10.30;99.90
20068;DHT22;10194;50.824;7.134;2023-11-21T13:58:49;10.30;99.90
20068;DHT22;10194;50.824;7.134;2023-11-21T14:01:20;10.30;99.90
20068;DHT22;10194;50.824;7.134;2023-11-21T14:04:02;10.30;99.90
20068;DHT22;10194;50.824;7.134;2023-11-21T14:06:49;10.30;99.90
20068;DHT22;10194;50.824;7.134;2023-11-21T14:09:22;10.20;99.90
20068;DHT22;10194;50.824;7.134;2023-11-21T14:11:55;10.20;99.90
20068;DHT22;10194;50.824;7.134;2023-11-21T14:14:26;10.20;99.90
20068;DHT22;10194;50.824;7.134;2023-11-21T14:16:55;10.20;99.90
20068;DHT22;10194;50.824;7.134;2023-11-21T14:19:22;10.10;99.90
20068;DHT22;10194;50.824;7.134;2023-11-21T14:21:52;10.20;99.90
20068;DHT22;10194;50.824;7.134;2023-11-21T14:24:18;10.10;99.90
20068;DHT22;10194;50.824;7.134;2023-11-21T14:26:45;10.10;99.90
20068;DHT22;10194;50.824;7.134;2023-11-21T14:29:12;10.10;99.90
20068;DHT22;10194;50.824;7.134;2023-11-21T14:31:41;10.10;99.90
20068;DHT22;10194;50.824;7.134;2023-11-21T14:34:08;10.10;99.90
20068;DHT22;10194;50.824;7.134;2023-11-21T14:36:34;10.10;99.90
20068;DHT22;10194;50.824;7.134;2023-11-21T14:39:02;10.10;99.90
20068;DHT22;10194;50.824;7.134;2023-11-21T14:41:32;10.10;99.90
20068;DHT22;10194;50.824;7.134;2023-11-21T14:44:00;10.10;99.90
20068;DHT22;10194;50.824;7.134;2023-11-21T14:46:28;10.10;99.90
20068;DHT22;10194;50.824;7.134;2023-11-21T14:48:54;10.00;99.90
20068;DHT22;10194;50.824;7.134;2023-11-21T14:51:40;10.00;99.90
20068;DHT22;10194;50.824;7.134;2023-11-21T14:54:26;10.10;99.90
20068;DHT22;10194;50.824;7.134;2023-11-21T14:57:14;10.10;99.90
20068;DHT22;10194;50.824;7.134;2023-11-21T14:59:48;10.10;99.90
20068;DHT22;10194;50.824;7.134;2023-11-21T15:02:18;10.00;99.90
20068;DHT22;10194;50.824;7.134;2023-11-21T15:05:10;10.00;99.90
20068;DHT22;10194;50.824;7.134;2023-11-21T15:07:43;10.00;99.90
20068;DHT22;10194;50.824;7.134;2023-11-21T15:10:10;10.00;99.90
20068;DHT22;10194;50.824;7.134;2023-11-21T15:12:40;10.00;99.90
20068;DHT22;10194;50.824;7.134;2023-11-21T15:15:08;10.00;99.90
20068;DHT22;10194;50.824;7.134;2023-11-21T15:17:36;10.00;99.90
20068;DHT22;10194;50.824;7.134;2023-11-21T15:20:03;9.90;99.90
20068;DHT22;10194;50.824;7.134;2023-11-21T15:22:32;9.90;99.90
20068;DHT22;10194;50.824;7.134;2023-11-21T15:24:58;9.90;99.90
20068;DHT22;10194;50.824;7.134;2023-11-21T15:27:24;9.80;99.90
20068;DHT22;10194;50.824;7.134;2023-11-21T15:29:50;9.80;99.90
20068;DHT22;10194;50.824;7.134;2023-11-21T15:32:16;9.80;99.90
20068;DHT22;10194;50.824;7.134;2023-11-21T15:34:41;9.70;99.90
20068;DHT22;10194;50.824;7.134;2023-11-21T15:37:08;9.70;99.90
20068;DHT22;10194;50.824;7.134;2023-11-21T15:39:37;9.70;99.90
20068;DHT22;10194;50.824;7.134;2023-11-21T15:42:04;9.70;99.90
20068;DHT22;10194;50.824;7.134;2023-11-21T15:44:31;9.60;99.90
20068;DHT22;10194;50.824;7.134;2023-11-21T15:46:58;9.70;99.90
20068;DHT22;10194;50.824;7.134;2023-11-21T15:49:24;9.70;99.90
20068;DHT22;10194;50.824;7.134;2023-11-21T15:51:53;9.70;99.90
20068;DHT22;10194;50.824;7.134;2023-11-21T15:54:29;9.70;99.90
20068;DHT22;10194;50.824;7.134;2023-11-21T15:56:56;9.60;99.90
20068;DHT22;10194;50.824;7.134;2023-11-21T15:59:23;9.60;99.90
20068;DHT22;10194;50.824;7.134;2023-11-21T16:01:54;9.60;99.90
20068;DHT22;10194;50.824;7.134;2023-11-21T16:04:20;9.60;99.90
20068;DHT22;10194;50.824;7.134;2023-11-21T16:06:47;9.70;99.90
20068;DHT22;10194;50.824;7.134;2023-11-21T16:09:13;9.70;99.90